sensor_id;sensor_type;location;lat;lon;timestamp;P1;durP1;ratioP1;P2;durP2;ratioP2
33579;SDS011;19909;43.644;-79.438;2024-01-06T00:00:23;97.43;;;66.68;;
33579;SDS011;19909;43.644;-79.438;2024-01-06T00:02:49;82.72;;;59.53;;
33579;SDS011;19909;43.644;-79.438;2024-01-06T00:05:15;66.65;;;50.55;;
33579;SDS011;19909;43.644;-79.438;2024-01-06T00:07:42;67.88;;;49.70;;
33579;SDS011;19909;43.644;-79.438;2024-01-06T00:10:08;52.85;;;41.10;;
33579;SDS011;19909;43.644;-79.438;2024-01-06T00:12:35;50.30;;;36.30;;
33579;SDS011;19909;43.644;-79.438;2024-01-06T00:15:01;45.45;;;33.88;;
33579;SDS011;19909;43.644;-79.438;2024-01-06T00:17:28;45.15;;;32.88;;
33579;SDS011;19909;43.644;-79.438;2024-01-06T00:19:54;39.72;;;29.38;;
33579;SDS011;19909;43.644;-79.438;2024-01-06T00:22:21;35.65;;;28.00;;
33579;SDS011;19909;43.644;-79.438;2024-01-06T00:24:47;34.03;;;26.55;;
33579;SDS011;19909;43.644;-79.438;2024-01-06T00:27:13;31.67;;;24.52;;
33579;SDS011;19909;43.644;-79.438;2024-01-06T00:32:08;28.35;;;21.30;;
33579;SDS011;19909;43.644;-79.438;2024-01-06T00:34:34;28.98;;;21.67;;
33579;SDS011;19909;43.644;-79.438;2024-01-06T00:37:01;26.17;;;20.00;;
33579;SDS011;19909;43.644;-79.438;2024-01-06T00:39:27;25.13;;;19.27;;
33579;SDS011;19909;43.644;-79.438;2024-01-06T00:41:53;24.23;;;17.02;;
33579;SDS011;19909;43.644;-79.438;2024-01-06T00:44:19;19.58;;;15.13;;
33579;SDS011;19909;43.644;-79.438;2024-01-06T00:46:45;24.88;;;16.17;;
33579;SDS011;19909;43.644;-79.438;2024-01-06T00:49:11;19.63;;;14.32;;
33579;SDS011;19909;43.644;-79.438;2024-01-06T00:51:38;15.50;;;12.82;;
33579;SDS011;19909;43.644;-79.438;2024-01-06T00:54:07;16.85;;;13.55;;
33579;SDS011;19909;43.644;-79.438;2024-01-06T00:56:33;14.82;;;12.07;;
33579;SDS011;19909;43.644;-79.438;2024-01-06T00:59:00;15.88;;;12.20;;
33579;SDS011;19909;43.644;-79.438;2024-01-06T01:01:26;13.93;;;11.02;;
33579;SDS011;19909;43.644;-79.438;2024-01-06T01:03:53;13.68;;;9.90;;
33579;SDS011;19909;43.644;-79.438;2024-01-06T01:06:20;11.27;;;9.68;;
33579;SDS011;19909;43.644;-79.438;2024-01-06T01:08:47;11.23;;;9.68;;
33579;SDS011;19909;43.644;-79.438;2024-01-06T01:11:13;11.88;;;9.15;;
33579;SDS011;19909;43.644;-79.438;2024-01-06T01:13:39;10.35;;;8.27;;
33579;SDS011;19909;43.644;-79.438;2024-01-06T01:16:06;11.05;;;8.10;;
33579;SDS011;19909;43.644;-79.438;2024-01-06T01:18:32;7.93;;;7.03;;
33579;SDS011;19909;43.644;-79.438;2024-01-06T01:20:59;10.50;;;7.20;;
33579;SDS011;19909;43.644;-79.438;2024-01-06T01:23:26;10.25;;;8.52;;
33579;SDS011;19909;43.644;-79.438;2024-01-06T01:25:54;9.32;;;7.53;;
33579;SDS011;19909;43.644;-79.438;2024-01-06T01:30:55;9.20;;;8.15;;
33579;SDS011;19909;43.644;-79.438;2024-01-06T01:33:21;9.55;;;7.75;;
33579;SDS011;19909;43.644;-79.438;2024-01-06T01:35:47;10.15;;;7.68;;
33579;SDS011;19909;43.644;-79.438;2024-01-06T01:40:46;7.45;;;5.78;;
33579;SDS011;19909;43.644;-79.438;2024-01-06T01:45:40;6.55;;;5.45;;
33579;SDS011;19909;43.644;-79.438;2024-01-06T01:48:07;6.45;;;5.28;;
33579;SDS011;19909;43.644;-79.438;2024-01-06T01:50:36;7.75;;;5.40;;
33579;SDS011;19909;43.644;-79.438;2024-01-06T01:53:02;5.32;;;4.80;;
33579;SDS011;19909;43.644;-79.438;2024-01-06T01:55:29;5.95;;;4.47;;
33579;SDS011;19909;43.644;-79.438;2024-01-06T01:57:56;6.03;;;4.22;;
33579;SDS011;19909;43.644;-79.438;2024-01-06T02:00:24;6.63;;;3.90;;
33579;SDS011;19909;43.644;-79.438;2024-01-06T02:02:50;5.72;;;4.03;;
33579;SDS011;19909;43.644;-79.438;2024-01-06T02:05:18;6.22;;;4.15;;
33579;SDS011;19909;43.644;-79.438;2024-01-06T02:07:45;4.57;;;3.90;;
33579;SDS011;19909;43.644;-79.438;2024-01-06T02:10:13;5.30;;;3.35;;
33579;SDS011;19909;43.644;-79.438;2024-01-06T02:12:40;4.78;;;3.67;;
33579;SDS011;19909;43.644;-79.438;2024-01-06T02:15:06;5.60;;;3.80;;
33579;SDS011;19909;43.644;-79.438;2024-01-06T02:17:32;3.95;;;3.17;;
33579;SDS011;19909;43.644;-79.438;2024-01-06T02:19:59;4.25;;;3.45;;
33579;SDS011;19909;43.644;-79.438;2024-01-06T02:22:25;3.58;;;2.80;;
33579;SDS011;19909;43.644;-79.438;2024-01-06T02:24:57;3.25;;;2.92;;
33579;SDS011;19909;43.644;-79.438;2024-01-06T02:29:51;4.63;;;3.58;;
33579;SDS011;19909;43.644;-79.438;2024-01-06T02:32:18;4.45;;;2.95;;
33579;SDS011;19909;43.644;-79.438;2024-01-06T02:34:44;2.90;;;2.60;;
33579;SDS011;19909;43.644;-79.438;2024-01-06T02:37:10;4.00;;;2.60;;
33579;SDS011;19909;43.644;-79.438;2024-01-06T02:39:36;4.32;;;2.55;;
33579;SDS011;19909;43.644;-79.438;2024-01-06T02:42:03;3.53;;;2.95;;
33579;SDS011;19909;43.644;-79.438;2024-01-06T02:44:32;3.03;;;2.72;;
33579;SDS011;19909;43.644;-79.438;2024-01-06T02:46:59;2.60;;;2.10;;
33579;SDS011;19909;43.644;-79.438;2024-01-06T02:49:25;3.17;;;2.72;;
33579;SDS011;19909;43.644;-79.438;2024-01-06T02:51:52;3.15;;;2.70;;
33579;SDS011;19909;43.644;-79.438;2024-01-06T02:54:18;3.17;;;2.67;;
33579;SDS011;19909;43.644;-79.438;2024-01-06T02:56:44;4.40;;;2.50;;
33579;SDS011;19909;43.644;-79.438;2024-01-06T02:59:10;2.90;;;2.38;;
33579;SDS011;19909;43.644;-79.438;2024-01-06T03:01:36;2.67;;;2.42;;
33579;SDS011;19909;43.644;-79.438;2024-01-06T03:04:02;3.42;;;2.63;;
33579;SDS011;19909;43.644;-79.438;2024-01-06T03:06:29;2.53;;;2.03;;
33579;SDS011;19909;43.644;-79.438;2024-01-06T03:08:56;2.67;;;2.35;;
33579;SDS011;19909;43.644;-79.438;2024-01-06T03:11:22;2.47;;;2.20;;
33579;SDS011;19909;43.644;-79.438;2024-01-06T03:13:48;4.13;;;2.55;;
33579;SDS011;19909;43.644;-79.438;2024-01-06T03:16:14;3.65;;;2.55;;
33579;SDS011;19909;43.644;-79.438;2024-01-06T03:18:41;2.50;;;2.22;;
33579;SDS011;19909;43.644;-79.438;2024-01-06T03:21:17;2.97;;;2.30;;
33579;SDS011;19909;43.644;-79.438;2024-01-06T03:23:45;3.03;;;2.00;;
33579;SDS011;19909;43.644;-79.438;2024-01-06T03:26:12;2.53;;;2.05;;
33579;SDS011;19909;43.644;-79.438;2024-01-06T03:28:38;3.55;;;2.17;;
33579;SDS011;19909;43.644;-79.438;2024-01-06T03:31:04;2.05;;;1.85;;
33579;SDS011;19909;43.644;-79.438;2024-01-06T03:33:31;2.53;;;2.10;;
33579;SDS011;19909;43.644;-79.438;2024-01-06T03:35:58;3.28;;;2.10;;
33579;SDS011;19909;43.644;-79.438;2024-01-06T03:38:24;2.08;;;1.70;;
33579;SDS011;19909;43.644;-79.438;2024-01-06T03:40:51;2.72;;;2.05;;
33579;SDS011;19909;43.644;-79.438;2024-01-06T03:43:17;2.55;;;1.88;;
33579;SDS011;19909;43.644;-79.438;2024-01-06T03:45:43;3.25;;;1.88;;
33579;SDS011;19909;43.644;-79.438;2024-01-06T03:48:10;1.92;;;1.80;;
33579;SDS011;19909;43.644;-79.438;2024-01-06T03:50:37;3.35;;;1.88;;
33579;SDS011;19909;43.644;-79.438;2024-01-06T03:53:03;2.30;;;1.85;;
33579;SDS011;19909;43.644;-79.438;2024-01-06T03:55:30;2.17;;;1.60;;
33579;SDS011;19909;43.644;-79.438;2024-01-06T03:57:57;1.67;;;1.58;;
33579;SDS011;19909;43.644;-79.438;2024-01-06T04:00:24;2.05;;;1.50;;
33579;SDS011;19909;43.644;-79.438;2024-01-06T04:02:53;2.88;;;1.70;;
33579;SDS011;19909;43.644;-79.438;2024-01-06T04:05:19;3.30;;;1.60;;
33579;SDS011;19909;43.644;-79.438;2024-01-06T04:07:45;2.28;;;1.80;;
33579;SDS011;19909;43.644;-79.438;2024-01-06T04:10:11;2.42;;;1.90;;
33579;SDS011;19909;43.644;-79.438;2024-01-06T04:12:37;2.10;;;1.85;;
33579;SDS011;19909;43.644;-79.438;2024-01-06T04:15:04;2.90;;;2.20;;
33579;SDS011;19909;43.644;-79.438;2024-01-06T04:17:31;2.33;;;1.80;;
33579;SDS011;19909;43.644;-79.438;2024-01-06T04:19:58;2.80;;;1.90;;
33579;SDS011;19909;43.644;-79.438;2024-01-06T04:22:24;1.83;;;1.63;;
33579;SDS011;19909;43.644;-79.438;2024-01-06T04:24:50;1.83;;;1.60;;
33579;SDS011;19909;43.644;-79.438;2024-01-06T04:27:17;2.60;;;1.80;;
33579;SDS011;19909;43.644;-79.438;2024-01-06T04:29:43;2.33;;;1.83;;
33579;SDS011;19909;43.644;-79.438;2024-01-06T04:32:10;1.98;;;1.70;;
33579;SDS011;19909;43.644;-79.438;2024-01-06T04:34:36;1.63;;;1.52;;
33579;SDS011;19909;43.644;-79.438;2024-01-06T04:37:02;2.17;;;1.50;;
33579;SDS011;19909;43.644;-79.438;2024-01-06T04:39:29;2.92;;;2.20;;
33579;SDS011;19909;43.644;-79.438;2024-01-06T04:41:57;1.70;;;1.40;;
33579;SDS011;19909;43.644;-79.438;2024-01-06T04:44:23;2.45;;;1.83;;
33579;SDS011;19909;43.644;-79.438;2024-01-06T04:46:50;1.70;;;1.55;;
33579;SDS011;19909;43.644;-79.438;2024-01-06T04:49:17;1.95;;;1.77;;
33579;SDS011;19909;43.644;-79.438;2024-01-06T04:51:43;1.63;;;1.48;;
33579;SDS011;19909;43.644;-79.438;2024-01-06T04:54:10;1.98;;;1.52;;
33579;SDS011;19909;43.644;-79.438;2024-01-06T04:56:36;2.05;;;1.48;;
33579;SDS011;19909;43.644;-79.438;2024-01-06T04:59:02;1.55;;;1.42;;
33579;SDS011;19909;43.644;-79.438;2024-01-06T05:01:28;1.80;;;1.60;;
33579;SDS011;19909;43.644;-79.438;2024-01-06T05:03:55;2.15;;;1.60;;
33579;SDS011;19909;43.644;-79.438;2024-01-06T05:06:21;1.45;;;1.35;;
33579;SDS011;19909;43.644;-79.438;2024-01-06T05:08:49;1.55;;;1.30;;
33579;SDS011;19909;43.644;-79.438;2024-01-06T05:11:15;1.73;;;1.15;;
33579;SDS011;19909;43.644;-79.438;2024-01-06T05:13:41;1.30;;;1.17;;
33579;SDS011;19909;43.644;-79.438;2024-01-06T05:16:08;1.05;;;0.93;;
33579;SDS011;19909;43.644;-79.438;2024-01-06T05:18:34;1.42;;;1.10;;
33579;SDS011;19909;43.644;-79.438;2024-01-06T05:21:01;1.73;;;1.17;;
33579;SDS011;19909;43.644;-79.438;2024-01-06T05:23:29;1.30;;;1.10;;
33579;SDS011;19909;43.644;-79.438;2024-01-06T05:25:55;1.27;;;1.10;;
33579;SDS011;19909;43.644;-79.438;2024-01-06T05:28:21;1.70;;;1.30;;
33579;SDS011;19909;43.644;-79.438;2024-01-06T05:30:47;1.10;;;0.98;;
33579;SDS011;19909;43.644;-79.438;2024-01-06T05:33:13;0.90;;;0.70;;
33579;SDS011;19909;43.644;-79.438;2024-01-06T05:35:41;1.05;;;0.95;;
33579;SDS011;19909;43.644;-79.438;2024-01-06T05:38:07;1.10;;;0.90;;
33579;SDS011;19909;43.644;-79.438;2024-01-06T05:40:35;1.40;;;0.90;;
33579;SDS011;19909;43.644;-79.438;2024-01-06T05:43:01;2.58;;;1.10;;
33579;SDS011;19909;43.644;-79.438;2024-01-06T05:45:28;1.50;;;1.00;;
33579;SDS011;19909;43.644;-79.438;2024-01-06T05:47:54;1.10;;;0.75;;
33579;SDS011;19909;43.644;-79.438;2024-01-06T05:50:20;1.15;;;0.88;;
33579;SDS011;19909;43.644;-79.438;2024-01-06T05:52:46;1.33;;;0.95;;
33579;SDS011;19909;43.644;-79.438;2024-01-06T05:55:14;1.02;;;0.60;;
33579;SDS011;19909;43.644;-79.438;2024-01-06T05:57:41;1.73;;;1.20;;
33579;SDS011;19909;43.644;-79.438;2024-01-06T06:00:09;1.33;;;1.23;;
33579;SDS011;19909;43.644;-79.438;2024-01-06T06:02:38;2.03;;;1.50;;
33579;SDS011;19909;43.644;-79.438;2024-01-06T06:05:05;1.23;;;1.13;;
33579;SDS011;19909;43.644;-79.438;2024-01-06T06:07:31;1.63;;;1.50;;
33579;SDS011;19909;43.644;-79.438;2024-01-06T06:09:57;1.52;;;1.42;;
33579;SDS011;19909;43.644;-79.438;2024-01-06T06:12:28;2.10;;;1.30;;
33579;SDS011;19909;43.644;-79.438;2024-01-06T06:14:54;1.85;;;1.10;;
33579;SDS011;19909;43.644;-79.438;2024-01-06T06:17:21;1.10;;;1.00;;
33579;SDS011;19909;43.644;-79.438;2024-01-06T06:19:47;1.23;;;1.10;;
33579;SDS011;19909;43.644;-79.438;2024-01-06T06:22:13;0.88;;;0.88;;
33579;SDS011;19909;43.644;-79.438;2024-01-06T06:24:40;1.52;;;0.98;;
33579;SDS011;19909;43.644;-79.438;2024-01-06T06:27:06;1.25;;;0.95;;
33579;SDS011;19909;43.644;-79.438;2024-01-06T06:29:33;1.42;;;1.00;;
33579;SDS011;19909;43.644;-79.438;2024-01-06T06:32:00;1.30;;;1.00;;
33579;SDS011;19909;43.644;-79.438;2024-01-06T06:34:26;1.10;;;0.93;;
33579;SDS011;19909;43.644;-79.438;2024-01-06T06:36:53;1.00;;;0.90;;
33579;SDS011;19909;43.644;-79.438;2024-01-06T06:39:19;1.80;;;1.25;;
33579;SDS011;19909;43.644;-79.438;2024-01-06T06:41:45;1.10;;;1.00;;
33579;SDS011;19909;43.644;-79.438;2024-01-06T06:44:11;1.30;;;1.20;;
33579;SDS011;19909;43.644;-79.438;2024-01-06T06:46:38;1.45;;;1.10;;
33579;SDS011;19909;43.644;-79.438;2024-01-06T06:49:04;1.30;;;1.10;;
33579;SDS011;19909;43.644;-79.438;2024-01-06T06:51:30;1.08;;;0.85;;
33579;SDS011;19909;43.644;-79.438;2024-01-06T06:53:58;0.98;;;0.88;;
33579;SDS011;19909;43.644;-79.438;2024-01-06T06:56:24;1.13;;;0.95;;
33579;SDS011;19909;43.644;-79.438;2024-01-06T06:58:51;1.00;;;0.90;;
33579;SDS011;19909;43.644;-79.438;2024-01-06T07:01:17;0.95;;;0.80;;
33579;SDS011;19909;43.644;-79.438;2024-01-06T07:03:44;1.73;;;1.08;;
33579;SDS011;19909;43.644;-79.438;2024-01-06T07:06:13;1.00;;;0.90;;
33579;SDS011;19909;43.644;-79.438;2024-01-06T07:08:41;1.10;;;0.70;;
33579;SDS011;19909;43.644;-79.438;2024-01-06T07:11:07;1.38;;;1.17;;
33579;SDS011;19909;43.644;-79.438;2024-01-06T07:13:36;1.75;;;1.35;;
33579;SDS011;19909;43.644;-79.438;2024-01-06T07:16:02;1.95;;;1.20;;
33579;SDS011;19909;43.644;-79.438;2024-01-06T07:18:30;1.35;;;1.15;;
33579;SDS011;19909;43.644;-79.438;2024-01-06T07:20:57;1.40;;;1.30;;
33579;SDS011;19909;43.644;-79.438;2024-01-06T07:23:23;1.38;;;1.27;;
33579;SDS011;19909;43.644;-79.438;2024-01-06T07:25:50;1.20;;;0.95;;
33579;SDS011;19909;43.644;-79.438;2024-01-06T07:28:16;1.17;;;0.98;;
33579;SDS011;19909;43.644;-79.438;2024-01-06T07:30:43;1.45;;;1.20;;
33579;SDS011;19909;43.644;-79.438;2024-01-06T07:33:09;1.08;;;0.98;;
33579;SDS011;19909;43.644;-79.438;2024-01-06T07:35:36;0.82;;;0.70;;
33579;SDS011;19909;43.644;-79.438;2024-01-06T07:38:02;1.80;;;0.80;;
33579;SDS011;19909;43.644;-79.438;2024-01-06T07:40:29;0.80;;;0.80;;
33579;SDS011;19909;43.644;-79.438;2024-01-06T07:42:55;0.70;;;0.63;;
33579;SDS011;19909;43.644;-79.438;2024-01-06T07:45:21;1.95;;;0.85;;
33579;SDS011;19909;43.644;-79.438;2024-01-06T07:47:48;1.40;;;1.00;;
33579;SDS011;19909;43.644;-79.438;2024-01-06T07:50:15;1.40;;;1.30;;
33579;SDS011;19909;43.644;-79.438;2024-01-06T07:52:41;2.20;;;1.23;;
33579;SDS011;19909;43.644;-79.438;2024-01-06T07:55:07;1.67;;;1.38;;
33579;SDS011;19909;43.644;-79.438;2024-01-06T07:57:34;2.60;;;1.20;;
33579;SDS011;19909;43.644;-79.438;2024-01-06T08:00:01;2.42;;;1.55;;
33579;SDS011;19909;43.644;-79.438;2024-01-06T08:02:28;2.90;;;1.30;;
33579;SDS011;19909;43.644;-79.438;2024-01-06T08:04:54;1.20;;;0.90;;
33579;SDS011;19909;43.644;-79.438;2024-01-06T08:07:21;1.10;;;0.90;;
33579;SDS011;19909;43.644;-79.438;2024-01-06T08:09:47;1.45;;;1.15;;
33579;SDS011;19909;43.644;-79.438;2024-01-06T08:12:15;1.15;;;0.80;;
33579;SDS011;19909;43.644;-79.438;2024-01-06T08:14:41;1.63;;;1.10;;
33579;SDS011;19909;43.644;-79.438;2024-01-06T08:17:07;1.40;;;0.90;;
33579;SDS011;19909;43.644;-79.438;2024-01-06T08:19:33;1.10;;;0.80;;
33579;SDS011;19909;43.644;-79.438;2024-01-06T08:22:01;1.08;;;0.80;;
33579;SDS011;19909;43.644;-79.438;2024-01-06T08:24:27;0.80;;;0.80;;
33579;SDS011;19909;43.644;-79.438;2024-01-06T08:26:53;1.40;;;1.30;;
33579;SDS011;19909;43.644;-79.438;2024-01-06T08:29:20;1.15;;;1.05;;
33579;SDS011;19909;43.644;-79.438;2024-01-06T08:31:46;1.60;;;1.30;;
33579;SDS011;19909;43.644;-79.438;2024-01-06T08:34:15;1.30;;;1.20;;
33579;SDS011;19909;43.644;-79.438;2024-01-06T08:36:41;1.50;;;1.40;;
33579;SDS011;19909;43.644;-79.438;2024-01-06T08:39:07;2.10;;;1.67;;
33579;SDS011;19909;43.644;-79.438;2024-01-06T08:41:34;3.30;;;1.25;;
33579;SDS011;19909;43.644;-79.438;2024-01-06T08:44:00;1.55;;;0.70;;
33579;SDS011;19909;43.644;-79.438;2024-01-06T08:46:27;1.00;;;0.75;;
33579;SDS011;19909;43.644;-79.438;2024-01-06T08:48:55;0.85;;;0.70;;
33579;SDS011;19909;43.644;-79.438;2024-01-06T08:51:22;1.13;;;0.80;;
33579;SDS011;19909;43.644;-79.438;2024-01-06T08:53:49;1.00;;;0.88;;
33579;SDS011;19909;43.644;-79.438;2024-01-06T08:56:15;2.15;;;0.80;;
33579;SDS011;19909;43.644;-79.438;2024-01-06T08:58:43;1.25;;;0.70;;
33579;SDS011;19909;43.644;-79.438;2024-01-06T09:01:09;1.95;;;0.90;;
33579;SDS011;19909;43.644;-79.438;2024-01-06T09:03:36;1.35;;;1.20;;
33579;SDS011;19909;43.644;-79.438;2024-01-06T09:06:03;1.45;;;1.35;;
33579;SDS011;19909;43.644;-79.438;2024-01-06T09:08:30;1.52;;;1.17;;
33579;SDS011;19909;43.644;-79.438;2024-01-06T09:10:56;1.63;;;1.00;;
33579;SDS011;19909;43.644;-79.438;2024-01-06T09:13:23;2.33;;;1.35;;
33579;SDS011;19909;43.644;-79.438;2024-01-06T09:15:51;2.08;;;1.52;;
33579;SDS011;19909;43.644;-79.438;2024-01-06T09:18:17;1.67;;;1.20;;
33579;SDS011;19909;43.644;-79.438;2024-01-06T09:20:44;1.30;;;0.80;;
33579;SDS011;19909;43.644;-79.438;2024-01-06T09:23:13;1.00;;;0.70;;
33579;SDS011;19909;43.644;-79.438;2024-01-06T09:25:41;1.13;;;0.88;;
33579;SDS011;19909;43.644;-79.438;2024-01-06T09:28:07;1.70;;;0.95;;
33579;SDS011;19909;43.644;-79.438;2024-01-06T09:30:34;1.00;;;0.85;;
33579;SDS011;19909;43.644;-79.438;2024-01-06T09:33:00;1.77;;;1.00;;
33579;SDS011;19909;43.644;-79.438;2024-01-06T09:35:26;1.30;;;0.75;;
33579;SDS011;19909;43.644;-79.438;2024-01-06T09:37:53;1.40;;;1.13;;
33579;SDS011;19909;43.644;-79.438;2024-01-06T09:40:21;1.48;;;1.00;;
33579;SDS011;19909;43.644;-79.438;2024-01-06T09:42:51;2.55;;;1.27;;
33579;SDS011;19909;43.644;-79.438;2024-01-06T09:45:21;1.95;;;1.30;;
33579;SDS011;19909;43.644;-79.438;2024-01-06T09:47:48;2.33;;;1.50;;
33579;SDS011;19909;43.644;-79.438;2024-01-06T09:50:17;2.05;;;1.48;;
33579;SDS011;19909;43.644;-79.438;2024-01-06T09:52:45;1.60;;;1.20;;
33579;SDS011;19909;43.644;-79.438;2024-01-06T09:55:24;3.00;;;1.13;;
33579;SDS011;19909;43.644;-79.438;2024-01-06T09:57:55;1.25;;;0.70;;
33579;SDS011;19909;43.644;-79.438;2024-01-06T10:00:21;1.60;;;0.90;;
33579;SDS011;19909;43.644;-79.438;2024-01-06T10:02:48;3.17;;;1.10;;
33579;SDS011;19909;43.644;-79.438;2024-01-06T10:05:16;1.27;;;0.60;;
33579;SDS011;19909;43.644;-79.438;2024-01-06T10:07:43;1.52;;;0.88;;
33579;SDS011;19909;43.644;-79.438;2024-01-06T10:10:10;1.85;;;1.10;;
33579;SDS011;19909;43.644;-79.438;2024-01-06T10:12:40;1.40;;;0.88;;
33579;SDS011;19909;43.644;-79.438;2024-01-06T10:15:08;1.42;;;0.90;;
33579;SDS011;19909;43.644;-79.438;2024-01-06T10:17:39;1.85;;;1.00;;
33579;SDS011;19909;43.644;-79.438;2024-01-06T10:20:08;2.50;;;1.40;;
33579;SDS011;19909;43.644;-79.438;2024-01-06T10:22:38;2.13;;;1.50;;
33579;SDS011;19909;43.644;-79.438;2024-01-06T10:25:07;1.83;;;1.45;;
33579;SDS011;19909;43.644;-79.438;2024-01-06T10:27:37;2.03;;;1.10;;
33579;SDS011;19909;43.644;-79.438;2024-01-06T10:30:05;1.23;;;1.13;;
33579;SDS011;19909;43.644;-79.438;2024-01-06T10:32:34;1.88;;;0.77;;
33579;SDS011;19909;43.644;-79.438;2024-01-06T10:35:01;1.25;;;0.82;;
33579;SDS011;19909;43.644;-79.438;2024-01-06T10:37:29;1.63;;;0.93;;
33579;SDS011;19909;43.644;-79.438;2024-01-06T10:40:06;1.20;;;0.95;;
33579;SDS011;19909;43.644;-79.438;2024-01-06T10:42:41;0.90;;;0.80;;
33579;SDS011;19909;43.644;-79.438;2024-01-06T10:45:09;1.27;;;0.73;;
33579;SDS011;19909;43.644;-79.438;2024-01-06T10:47:37;2.60;;;1.27;;
33579;SDS011;19909;43.644;-79.438;2024-01-06T10:50:04;1.30;;;1.05;;
33579;SDS011;19909;43.644;-79.438;2024-01-06T10:52:33;2.67;;;1.05;;
33579;SDS011;19909;43.644;-79.438;2024-01-06T10:55:02;2.13;;;1.33;;
33579;SDS011;19909;43.644;-79.438;2024-01-06T10:57:31;1.92;;;1.40;;
33579;SDS011;19909;43.644;-79.438;2024-01-06T10:59:58;1.40;;;1.30;;
33579;SDS011;19909;43.644;-79.438;2024-01-06T11:02:25;3.03;;;1.30;;
33579;SDS011;19909;43.644;-79.438;2024-01-06T11:04:53;1.90;;;1.73;;
33579;SDS011;19909;43.644;-79.438;2024-01-06T11:07:22;1.92;;;1.20;;
33579;SDS011;19909;43.644;-79.438;2024-01-06T11:12:28;2.85;;;0.82;;
33579;SDS011;19909;43.644;-79.438;2024-01-06T11:14:54;1.83;;;0.90;;
33579;SDS011;19909;43.644;-79.438;2024-01-06T11:20:19;0.93;;;0.70;;
33579;SDS011;19909;43.644;-79.438;2024-01-06T11:22:49;1.00;;;0.77;;
33579;SDS011;19909;43.644;-79.438;2024-01-06T11:25:17;1.58;;;1.40;;
33579;SDS011;19909;43.644;-79.438;2024-01-06T11:27:46;1.60;;;1.10;;
33579;SDS011;19909;43.644;-79.438;2024-01-06T11:30:46;1.60;;;1.00;;
33579;SDS011;19909;43.644;-79.438;2024-01-06T11:33:05;1.65;;;1.50;;
33579;SDS011;19909;43.644;-79.438;2024-01-06T11:35:33;1.40;;;1.30;;
33579;SDS011;19909;43.644;-79.438;2024-01-06T11:38:02;1.55;;;1.25;;
33579;SDS011;19909;43.644;-79.438;2024-01-06T11:40:33;1.25;;;0.93;;
33579;SDS011;19909;43.644;-79.438;2024-01-06T11:43:10;1.15;;;0.82;;
33579;SDS011;19909;43.644;-79.438;2024-01-06T11:45:38;0.90;;;0.80;;
33579;SDS011;19909;43.644;-79.438;2024-01-06T11:48:07;1.25;;;0.65;;
33579;SDS011;19909;43.644;-79.438;2024-01-06T11:50:37;1.10;;;0.88;;
33579;SDS011;19909;43.644;-79.438;2024-01-06T11:53:06;2.10;;;0.70;;
33579;SDS011;19909;43.644;-79.438;2024-01-06T11:55:35;2.17;;;0.90;;
33579;SDS011;19909;43.644;-79.438;2024-01-06T11:58:03;1.33;;;0.90;;
33579;SDS011;19909;43.644;-79.438;2024-01-06T12:00:34;1.40;;;1.08;;
33579;SDS011;19909;43.644;-79.438;2024-01-06T12:03:04;1.42;;;1.23;;
33579;SDS011;19909;43.644;-79.438;2024-01-06T12:05:30;2.60;;;1.63;;
33579;SDS011;19909;43.644;-79.438;2024-01-06T12:07:57;1.45;;;1.30;;
33579;SDS011;19909;43.644;-79.438;2024-01-06T12:10:26;2.50;;;1.10;;
33579;SDS011;19909;43.644;-79.438;2024-01-06T12:13:05;2.25;;;1.52;;
33579;SDS011;19909;43.644;-79.438;2024-01-06T12:15:35;1.45;;;1.27;;
33579;SDS011;19909;43.644;-79.438;2024-01-06T12:18:05;1.90;;;1.10;;
33579;SDS011;19909;43.644;-79.438;2024-01-06T12:20:32;2.10;;;1.00;;
33579;SDS011;19909;43.644;-79.438;2024-01-06T12:22:58;1.05;;;0.80;;
33579;SDS011;19909;43.644;-79.438;2024-01-06T12:25:26;1.05;;;0.90;;
33579;SDS011;19909;43.644;-79.438;2024-01-06T12:27:54;1.02;;;0.70;;
33579;SDS011;19909;43.644;-79.438;2024-01-06T12:30:22;0.75;;;0.60;;
33579;SDS011;19909;43.644;-79.438;2024-01-06T12:32:50;0.95;;;0.70;;
33579;SDS011;19909;43.644;-79.438;2024-01-06T12:35:17;1.02;;;0.73;;
33579;SDS011;19909;43.644;-79.438;2024-01-06T12:37:45;1.38;;;0.85;;
33579;SDS011;19909;43.644;-79.438;2024-01-06T12:40:12;1.20;;;1.10;;
33579;SDS011;19909;43.644;-79.438;2024-01-06T12:42:42;1.75;;;0.80;;
33579;SDS011;19909;43.644;-79.438;2024-01-06T12:45:10;1.23;;;1.00;;
33579;SDS011;19909;43.644;-79.438;2024-01-06T12:47:36;0.90;;;0.90;;
33579;SDS011;19909;43.644;-79.438;2024-01-06T12:50:03;1.77;;;1.15;;
33579;SDS011;19909;43.644;-79.438;2024-01-06T12:52:30;1.90;;;0.90;;
33579;SDS011;19909;43.644;-79.438;2024-01-06T12:54:56;0.98;;;0.85;;
33579;SDS011;19909;43.644;-79.438;2024-01-06T12:57:26;1.15;;;0.70;;
33579;SDS011;19909;43.644;-79.438;2024-01-06T12:59:52;0.60;;;0.60;;
33579;SDS011;19909;43.644;-79.438;2024-01-06T13:02:19;0.88;;;0.80;;
33579;SDS011;19909;43.644;-79.438;2024-01-06T13:04:46;0.63;;;0.60;;
33579;SDS011;19909;43.644;-79.438;2024-01-06T13:07:12;0.52;;;0.50;;
33579;SDS011;19909;43.644;-79.438;2024-01-06T13:09:38;0.47;;;0.45;;
33579;SDS011;19909;43.644;-79.438;2024-01-06T13:12:05;0.60;;;0.60;;
33579;SDS011;19909;43.644;-79.438;2024-01-06T13:14:31;0.80;;;0.80;;
33579;SDS011;19909;43.644;-79.438;2024-01-06T13:16:58;1.08;;;0.90;;
33579;SDS011;19909;43.644;-79.438;2024-01-06T13:19:25;1.00;;;0.90;;
33579;SDS011;19909;43.644;-79.438;2024-01-06T13:21:52;2.47;;;0.90;;
33579;SDS011;19909;43.644;-79.438;2024-01-06T13:24:18;1.67;;;1.00;;
33579;SDS011;19909;43.644;-79.438;2024-01-06T13:26:44;1.20;;;1.10;;
33579;SDS011;19909;43.644;-79.438;2024-01-06T13:29:10;1.15;;;1.02;;
33579;SDS011;19909;43.644;-79.438;2024-01-06T13:31:37;1.10;;;1.00;;
33579;SDS011;19909;43.644;-79.438;2024-01-06T13:34:04;1.00;;;0.90;;
33579;SDS011;19909;43.644;-79.438;2024-01-06T13:36:31;0.80;;;0.63;;
33579;SDS011;19909;43.644;-79.438;2024-01-06T13:38:58;0.80;;;0.80;;
33579;SDS011;19909;43.644;-79.438;2024-01-06T13:41:25;0.77;;;0.50;;
33579;SDS011;19909;43.644;-79.438;2024-01-06T13:43:52;0.40;;;0.40;;
33579;SDS011;19909;43.644;-79.438;2024-01-06T13:46:18;0.70;;;0.52;;
33579;SDS011;19909;43.644;-79.438;2024-01-06T13:48:44;0.60;;;0.40;;
33579;SDS011;19909;43.644;-79.438;2024-01-06T13:51:10;0.65;;;0.60;;
33579;SDS011;19909;43.644;-79.438;2024-01-06T13:53:37;0.88;;;0.70;;
33579;SDS011;19909;43.644;-79.438;2024-01-06T13:56:03;0.70;;;0.60;;
33579;SDS011;19909;43.644;-79.438;2024-01-06T13:58:31;0.93;;;0.90;;
33579;SDS011;19909;43.644;-79.438;2024-01-06T14:00:57;0.80;;;0.80;;
33579;SDS011;19909;43.644;-79.438;2024-01-06T14:03:23;1.30;;;0.80;;
33579;SDS011;19909;43.644;-79.438;2024-01-06T14:05:49;1.08;;;0.98;;
33579;SDS011;19909;43.644;-79.438;2024-01-06T14:08:16;1.20;;;1.00;;
33579;SDS011;19909;43.644;-79.438;2024-01-06T14:10:42;0.80;;;0.70;;
33579;SDS011;19909;43.644;-79.438;2024-01-06T14:13:10;0.50;;;0.50;;
33579;SDS011;19909;43.644;-79.438;2024-01-06T14:15:36;0.70;;;0.70;;
33579;SDS011;19909;43.644;-79.438;2024-01-06T14:18:03;0.40;;;0.40;;
33579;SDS011;19909;43.644;-79.438;2024-01-06T14:20:30;0.50;;;0.50;;
33579;SDS011;19909;43.644;-79.438;2024-01-06T14:22:57;0.30;;;0.30;;
33579;SDS011;19909;43.644;-79.438;2024-01-06T14:25:24;1.00;;;0.30;;
33579;SDS011;19909;43.644;-79.438;2024-01-06T14:27:50;0.45;;;0.40;;
33579;SDS011;19909;43.644;-79.438;2024-01-06T14:30:16;0.80;;;0.50;;
33579;SDS011;19909;43.644;-79.438;2024-01-06T14:32:46;0.70;;;0.70;;
33579;SDS011;19909;43.644;-79.438;2024-01-06T14:35:12;1.58;;;0.82;;